Tisul, Russia
Current Conditions -  °F | °C
As of 8:30 PM on Thursday 23 Oct 2014 (Local Time) from UNEE Reporting Station
Clear Clear  
Wind Chill:   Ceiling: Unl
Heat Index:   Visibility: 6mi
Dew Point:   Wind: 2mph
Humidity: 87%   Direction: 250°WSW
Pressure: 29.83"   Gusts: NA
Location:  55.76°N, 88.31°E
Report Text: UNEE 231330Z 25001MPS CAVOK 02/00 Q1010 NOSIG RMK QFE73523290050
Loading
Personal Weather Stations






























Interactive Weather Map
Tropical Storm Tracking
New forecast layout! Learn more

10-Day Weather Forecast

Advertisements
Track Severe Weather on mobile